createdAt,value
2023-02-11T00:01:33.752Z,15.70
2023-02-11T00:04:02.021Z,16.60
2023-02-11T00:06:30.469Z,14.13
2023-02-11T00:08:57.772Z,19.90
2023-02-11T00:11:26.697Z,19.90
2023-02-11T00:13:53.789Z,10.00
2023-02-11T00:16:21.517Z,16.02
2023-02-11T00:18:50.409Z,9.82
2023-02-11T00:21:20.133Z,14.73
2023-02-11T00:23:47.940Z,14.50
2023-02-11T00:26:17.398Z,21.55
2023-02-11T00:28:45.009Z,12.60
2023-02-11T00:31:13.180Z,20.50
2023-02-11T00:33:40.740Z,15.63
2023-02-11T00:36:11.920Z,26.83
2023-02-11T00:38:39.498Z,21.70
2023-02-11T00:41:06.742Z,15.65
2023-02-11T00:43:35.409Z,14.55
2023-02-11T00:46:02.466Z,18.63
2023-02-11T00:48:29.537Z,14.52
2023-02-11T00:50:56.625Z,13.40
2023-02-11T00:53:23.771Z,13.98
2023-02-11T00:55:51.055Z,19.15
2023-02-11T00:58:18.357Z,19.40
2023-02-11T01:00:45.370Z,18.17
2023-02-11T01:03:12.413Z,17.30
2023-02-11T01:05:39.825Z,24.58
2023-02-11T01:08:07.264Z,19.92
2023-02-11T01:10:34.224Z,16.67
2023-02-11T01:13:02.150Z,17.23
2023-02-11T01:15:29.320Z,13.00
2023-02-11T01:17:56.365Z,16.77
2023-02-11T01:20:26.455Z,14.82
2023-02-11T01:22:53.502Z,11.80
2023-02-11T01:25:20.398Z,10.18
2023-02-11T01:27:47.330Z,16.15
2023-02-11T01:30:14.732Z,17.48
2023-02-11T01:32:42.064Z,11.52
2023-02-11T01:35:09.043Z,14.52
2023-02-11T01:37:36.667Z,11.13
2023-02-11T01:40:07.068Z,12.80
2023-02-11T01:42:33.992Z,15.88
2023-02-11T01:45:22.156Z,11.63
2023-02-11T01:47:49.020Z,10.27
2023-02-11T01:50:16.016Z,12.93
2023-02-11T01:52:43.782Z,16.35
2023-02-11T01:55:32.608Z,13.38
2023-02-11T01:58:05.004Z,9.80
2023-02-11T02:00:37.790Z,8.75
2023-02-11T02:03:09.907Z,8.80
2023-02-11T02:06:11.031Z,15.82
2023-02-11T02:08:55.630Z,19.75
2023-02-11T02:11:23.106Z,15.20
2023-02-11T02:13:49.994Z,9.80
2023-02-11T02:16:19.861Z,5.88
2023-02-11T02:19:05.494Z,10.13
2023-02-11T02:21:44.114Z,9.73
2023-02-11T02:24:35.584Z,7.47
2023-02-11T02:27:29.579Z,6.70
2023-02-11T02:30:15.149Z,5.88
2023-02-11T02:33:22.465Z,5.72
2023-02-11T02:35:52.391Z,4.63
2023-02-11T02:38:23.355Z,4.78
2023-02-11T02:43:21.607Z,8.25
2023-02-11T02:45:48.837Z,9.52
2023-02-11T02:48:30.880Z,3.45
2023-02-11T02:51:35.802Z,5.93
2023-02-11T02:54:26.796Z,8.35
2023-02-11T02:57:07.235Z,2.30
2023-02-11T02:59:42.897Z,3.65
2023-02-11T03:02:23.344Z,3.58
2023-02-11T03:05:16.127Z,4.07
2023-02-11T03:07:43.426Z,3.25
2023-02-11T03:10:23.575Z,2.00
2023-02-11T03:12:51.880Z,3.10
2023-02-11T03:15:21.189Z,3.53
2023-02-11T03:17:53.612Z,1.92
2023-02-11T03:20:23.234Z,1.65
2023-02-11T03:23:11.216Z,2.78
2023-02-11T03:25:44.873Z,2.10
2023-02-11T03:28:33.053Z,1.70
2023-02-11T03:31:07.807Z,2.83
2023-02-11T03:34:06.417Z,1.50
2023-02-11T03:36:41.135Z,1.63
2023-02-11T03:39:11.099Z,0.90
2023-02-11T03:41:41.110Z,1.45
2023-02-11T03:44:09.333Z,0.75
2023-02-11T03:46:39.430Z,2.33
2023-02-11T03:49:14.867Z,1.20
2023-02-11T03:51:42.288Z,1.27
2023-02-11T03:54:16.592Z,0.98
2023-02-11T03:56:53.675Z,2.13
2023-02-11T03:59:20.752Z,0.65
2023-02-11T04:01:47.955Z,1.30
2023-02-11T04:04:15.064Z,1.15
2023-02-11T04:06:42.248Z,2.10
2023-02-11T04:09:10.262Z,1.25
2023-02-11T04:11:37.204Z,1.75
2023-02-11T04:14:04.301Z,1.55
2023-02-11T04:16:31.306Z,1.60
2023-02-11T04:18:58.524Z,1.95
2023-02-11T04:21:25.536Z,1.85
2023-02-11T04:23:52.418Z,1.40
2023-02-11T04:26:19.369Z,1.48
2023-02-11T04:28:46.288Z,1.63
2023-02-11T04:31:13.229Z,1.55
2023-02-11T04:33:40.188Z,1.65
2023-02-11T04:36:07.511Z,3.38
2023-02-11T04:38:34.377Z,2.45
2023-02-11T04:41:01.357Z,2.10
2023-02-11T04:43:28.256Z,2.10
2023-02-11T04:45:58.780Z,1.48
2023-02-11T04:48:26.199Z,2.33
2023-02-11T04:50:53.103Z,1.83
2023-02-11T04:53:20.054Z,2.53
2023-02-11T04:55:51.141Z,3.45
2023-02-11T04:58:19.705Z,2.53
2023-02-11T05:00:46.983Z,3.53
2023-02-11T05:03:14.457Z,3.72
2023-02-11T05:05:42.685Z,2.08
2023-02-11T05:08:11.275Z,2.03
2023-02-11T05:10:38.754Z,2.65
2023-02-11T05:13:05.950Z,3.28
2023-02-11T05:15:32.984Z,2.50
2023-02-11T05:17:59.910Z,2.38
2023-02-11T05:20:26.795Z,4.10
2023-02-11T05:22:53.755Z,3.25
2023-02-11T05:25:20.844Z,5.03
2023-02-11T05:27:47.729Z,3.78
2023-02-11T05:30:14.792Z,3.15
2023-02-11T05:32:41.931Z,3.20
2023-02-11T05:35:09.534Z,2.55
2023-02-11T05:37:36.520Z,3.22
2023-02-11T05:40:04.037Z,3.30
2023-02-11T05:42:30.919Z,3.40
2023-02-11T05:44:57.981Z,3.40
2023-02-11T05:47:24.936Z,3.75
2023-02-11T05:49:53.587Z,3.72
2023-02-11T05:52:22.152Z,5.93
2023-02-11T05:54:49.112Z,4.55
2023-02-11T05:57:17.194Z,4.72
2023-02-11T05:59:44.472Z,4.80
2023-02-11T06:02:11.464Z,5.07
2023-02-11T06:04:38.416Z,4.75
2023-02-11T06:07:05.427Z,5.05
2023-02-11T06:09:32.315Z,4.40
2023-02-11T06:11:59.586Z,5.13
2023-02-11T06:14:26.824Z,6.35
2023-02-11T06:16:53.820Z,6.10
2023-02-11T06:19:20.735Z,3.78
2023-02-11T06:21:48.016Z,4.35
2023-02-11T06:24:16.280Z,3.70
2023-02-11T06:26:43.254Z,4.45
2023-02-11T06:29:10.233Z,5.60
2023-02-11T06:31:38.963Z,4.55
2023-02-11T06:34:06.272Z,5.97
2023-02-11T06:36:33.268Z,7.28
2023-02-11T06:39:00.171Z,4.30
2023-02-11T06:41:27.108Z,5.70
2023-02-11T06:43:54.189Z,6.47
2023-02-11T06:46:21.211Z,5.88
2023-02-11T06:48:48.148Z,7.07
2023-02-11T06:51:15.602Z,6.90
2023-02-11T06:53:45.172Z,5.18
2023-02-11T06:56:18.242Z,7.32
2023-02-11T06:58:45.857Z,6.93
2023-02-11T07:01:16.094Z,4.28
2023-02-11T07:03:44.541Z,5.57
2023-02-11T07:06:16.609Z,5.32
2023-02-11T07:08:45.958Z,7.53
2023-02-11T07:11:24.311Z,5.50
2023-02-11T07:13:52.460Z,4.05
2023-02-11T07:16:20.833Z,4.28
2023-02-11T07:18:48.820Z,5.68
2023-02-11T07:21:19.156Z,6.43
2023-02-11T07:23:47.018Z,6.32
2023-02-11T07:26:16.102Z,6.10
2023-02-11T07:28:43.138Z,5.60
2023-02-11T07:31:13.416Z,6.22
2023-02-11T07:33:41.007Z,4.82
2023-02-11T07:36:10.026Z,5.72
2023-02-11T07:38:37.567Z,5.57
2023-02-11T07:41:07.934Z,5.50
2023-02-11T07:43:35.505Z,9.10
2023-02-11T07:46:09.900Z,5.20
2023-02-11T07:48:36.880Z,6.40
2023-02-11T07:51:14.741Z,5.97
2023-02-11T07:53:41.739Z,6.28
2023-02-11T07:56:10.344Z,5.57
2023-02-11T07:58:42.248Z,5.03
2023-02-11T08:01:15.792Z,7.35
2023-02-11T08:03:43.278Z,4.00
2023-02-11T08:06:13.262Z,8.98
2023-02-11T08:08:40.931Z,3.42
2023-02-11T08:11:18.162Z,3.83
2023-02-11T08:13:45.549Z,4.00
2023-02-11T08:16:33.202Z,7.93
2023-02-11T08:19:02.691Z,4.28
2023-02-11T08:21:32.340Z,5.05
2023-02-11T08:23:59.315Z,3.22
2023-02-11T08:26:30.305Z,5.20
2023-02-11T08:29:00.857Z,4.25
2023-02-11T08:31:31.171Z,5.60
2023-02-11T08:33:58.317Z,5.18
2023-02-11T08:36:29.304Z,4.40
2023-02-11T08:41:44.902Z,2.20
2023-02-11T08:44:14.388Z,4.10
2023-02-11T08:46:41.273Z,2.60
2023-02-11T08:49:08.245Z,1.92
2023-02-11T08:51:35.211Z,4.85
2023-02-11T08:54:02.156Z,5.20
2023-02-11T08:56:31.506Z,2.25
2023-02-11T08:58:58.500Z,3.97
2023-02-11T09:01:29.388Z,2.53
2023-02-11T09:03:57.231Z,4.30
2023-02-11T09:06:26.553Z,3.72
2023-02-11T09:08:55.397Z,3.80
2023-02-11T09:11:27.372Z,5.00
2023-02-11T09:13:54.662Z,3.35
2023-02-11T09:16:27.364Z,1.58
2023-02-11T09:18:56.420Z,3.53
2023-02-11T09:21:23.389Z,2.97
2023-02-11T09:23:50.576Z,2.15
2023-02-11T09:26:20.676Z,5.03
2023-02-11T09:28:48.690Z,2.58
2023-02-11T09:31:18.051Z,3.05
2023-02-11T09:33:49.684Z,2.13
2023-02-11T09:36:22.605Z,4.43
2023-02-11T09:38:49.931Z,1.73
2023-02-11T09:41:25.592Z,2.70
2023-02-11T09:43:56.315Z,2.45
2023-02-11T09:46:25.872Z,2.58
2023-02-11T09:48:55.739Z,2.25
2023-02-11T09:51:44.387Z,1.67
2023-02-11T09:54:27.275Z,6.47
2023-02-11T09:56:54.182Z,5.82
2023-02-11T09:59:21.704Z,15.43
2023-02-11T10:01:55.333Z,17.02
2023-02-11T10:04:50.434Z,22.38
2023-02-11T10:07:42.124Z,24.98
2023-02-11T10:11:07.018Z,31.00
2023-02-11T10:13:42.738Z,35.78
2023-02-11T10:16:31.908Z,43.60
2023-02-11T10:19:36.016Z,47.83
2023-02-11T10:22:33.574Z,40.40
2023-02-11T10:25:00.951Z,37.15
2023-02-11T10:27:35.891Z,25.80
2023-02-11T10:30:07.523Z,24.13
2023-02-11T10:32:47.065Z,19.42
2023-02-11T10:35:18.873Z,17.55
2023-02-11T10:37:45.852Z,21.70
2023-02-11T10:40:32.097Z,12.98
2023-02-11T10:43:03.929Z,8.88
2023-02-11T10:45:46.323Z,6.72
2023-02-11T10:48:43.087Z,4.20
2023-02-11T10:51:14.627Z,9.05
2023-02-11T10:53:41.948Z,9.38
2023-02-11T10:56:12.689Z,6.18
2023-02-11T10:58:42.553Z,7.53
2023-02-11T11:01:23.489Z,7.50
2023-02-11T11:03:54.072Z,6.72
2023-02-11T11:06:37.124Z,4.28
2023-02-11T11:09:04.741Z,3.90
2023-02-11T11:11:31.723Z,5.53
2023-02-11T11:14:03.816Z,4.13
2023-02-11T11:16:38.004Z,3.53
2023-02-11T11:19:07.663Z,3.30
2023-02-11T11:21:40.908Z,3.55
2023-02-11T11:24:16.004Z,2.53
2023-02-11T11:26:46.754Z,2.13
2023-02-11T11:29:30.607Z,2.00
2023-02-11T11:32:01.499Z,1.35
2023-02-11T11:34:42.078Z,2.47
2023-02-11T11:37:22.326Z,2.83
2023-02-11T11:40:11.237Z,1.00
2023-02-11T11:42:39.970Z,1.05
2023-02-11T11:45:30.293Z,5.68
2023-02-11T11:48:21.155Z,2.50
2023-02-11T11:50:53.512Z,3.13
2023-02-11T11:53:26.319Z,4.75
2023-02-11T11:56:10.857Z,4.68
2023-02-11T11:58:38.141Z,3.15
2023-02-11T12:01:23.275Z,2.97
2023-02-11T12:04:11.749Z,4.22
2023-02-11T12:07:02.513Z,2.47
2023-02-11T12:09:32.318Z,2.72
2023-02-11T12:12:10.189Z,3.78
2023-02-11T12:14:40.017Z,2.33
2023-02-11T12:17:37.642Z,2.75
2023-02-11T12:20:23.860Z,2.35
2023-02-11T12:23:12.351Z,1.45
2023-02-11T12:25:39.190Z,3.17
2023-02-11T12:28:37.559Z,1.73
2023-02-11T12:31:16.834Z,1.88
2023-02-11T12:34:21.369Z,1.67
2023-02-11T12:37:02.556Z,3.47
2023-02-11T12:39:50.316Z,2.47
2023-02-11T12:43:03.699Z,1.52
2023-02-11T12:46:07.711Z,3.92
2023-02-11T12:48:59.289Z,4.85
2023-02-11T12:52:01.478Z,3.15
2023-02-11T12:54:44.046Z,2.92
2023-02-11T12:57:18.205Z,3.33
2023-02-11T13:00:00.476Z,7.22
2023-02-11T13:02:27.403Z,3.15
2023-02-11T13:04:57.501Z,4.28
2023-02-11T13:07:45.003Z,4.20
2023-02-11T13:10:15.686Z,4.20
2023-02-11T13:13:05.624Z,2.13
2023-02-11T13:15:33.823Z,4.90
2023-02-11T13:18:30.897Z,6.18
2023-02-11T13:20:57.707Z,3.15
2023-02-11T13:23:36.597Z,2.58
2023-02-11T13:26:19.609Z,1.50
2023-02-11T13:29:20.551Z,1.73
2023-02-11T13:32:06.510Z,2.90
2023-02-11T13:34:42.369Z,1.67
2023-02-11T13:37:26.759Z,3.50
2023-02-11T13:40:19.832Z,3.60
2023-02-11T13:42:56.059Z,2.00
2023-02-11T13:45:41.126Z,3.40
2023-02-11T13:48:38.079Z,5.72
2023-02-11T13:51:15.056Z,4.60
2023-02-11T13:53:53.288Z,6.50
2023-02-11T13:56:42.815Z,3.63
2023-02-11T13:59:27.938Z,4.03
2023-02-11T14:02:19.579Z,2.08
2023-02-11T14:05:19.981Z,5.60
2023-02-11T14:08:28.578Z,2.80
2023-02-11T14:11:12.458Z,4.10
2023-02-11T14:13:48.679Z,6.07
2023-02-11T14:16:31.603Z,2.90
2023-02-11T14:19:06.457Z,4.00
2023-02-11T14:21:39.559Z,5.20
2023-02-11T14:24:07.155Z,6.70
2023-02-11T14:27:04.487Z,3.13
2023-02-11T14:29:55.499Z,2.28
2023-02-11T14:32:34.146Z,7.75
2023-02-11T14:35:16.049Z,3.67
2023-02-11T14:38:03.193Z,2.95
2023-02-11T14:40:56.328Z,4.43
2023-02-11T14:43:29.164Z,4.05
2023-02-11T14:45:58.118Z,1.48
2023-02-11T14:48:35.205Z,5.07
2023-02-11T14:51:12.697Z,4.65
2023-02-11T14:53:45.273Z,4.03
2023-02-11T14:56:21.847Z,4.22
2023-02-11T14:58:51.944Z,2.35
2023-02-11T15:01:35.540Z,4.37
2023-02-11T15:04:04.590Z,5.40
2023-02-11T15:06:36.780Z,2.15
2023-02-11T15:09:12.706Z,5.15
2023-02-11T15:11:41.818Z,3.95
2023-02-11T15:14:22.368Z,4.07
2023-02-11T15:16:50.879Z,3.72
2023-02-11T15:19:26.829Z,5.65
2023-02-11T15:21:54.792Z,5.47
2023-02-11T15:24:24.420Z,4.53
2023-02-11T15:27:15.672Z,3.65
2023-02-11T15:29:46.145Z,2.45
2023-02-11T15:32:17.431Z,3.50
2023-02-11T15:34:45.591Z,3.08
2023-02-11T15:37:17.137Z,2.55
2023-02-11T15:39:44.062Z,4.78
2023-02-11T15:42:24.679Z,4.88
2023-02-11T15:45:14.484Z,2.33
2023-02-11T15:47:48.711Z,5.32
2023-02-11T15:50:21.875Z,3.42
2023-02-11T15:52:50.059Z,3.72
2023-02-11T15:55:18.259Z,3.10
2023-02-11T15:58:05.157Z,3.25
2023-02-11T16:00:38.397Z,2.38
2023-02-11T16:03:05.377Z,6.43
2023-02-11T16:05:41.296Z,6.32
2023-02-11T16:08:49.312Z,2.60
2023-02-11T16:11:25.512Z,4.15
2023-02-11T16:13:53.716Z,2.35
2023-02-11T16:16:51.166Z,4.90
2023-02-11T16:19:25.734Z,4.22
2023-02-11T16:21:55.067Z,4.75
2023-02-11T16:24:28.237Z,3.47
2023-02-11T16:26:58.896Z,3.35
2023-02-11T16:29:31.860Z,4.75
2023-02-11T16:32:17.973Z,3.90
2023-02-11T16:34:45.182Z,3.70
2023-02-11T16:37:12.320Z,5.70
2023-02-11T16:39:39.258Z,3.97
2023-02-11T16:42:08.967Z,5.00
2023-02-11T16:44:35.915Z,3.28
2023-02-11T16:47:06.947Z,8.00
2023-02-11T16:49:40.724Z,4.15
2023-02-11T16:52:12.858Z,5.93
2023-02-11T16:54:39.759Z,4.40
2023-02-11T16:57:16.252Z,3.30
2023-02-11T16:59:43.549Z,3.00
2023-02-11T17:02:18.286Z,5.80
2023-02-11T17:04:45.867Z,8.63
2023-02-11T17:07:13.139Z,6.88
2023-02-11T17:09:41.567Z,5.72
2023-02-11T17:12:08.489Z,5.30
2023-02-11T17:14:35.385Z,2.85
2023-02-11T17:17:02.321Z,3.67
2023-02-11T17:19:29.243Z,5.78
2023-02-11T17:21:56.335Z,3.92
2023-02-11T17:24:23.708Z,3.55
2023-02-11T17:26:51.134Z,5.22
2023-02-11T17:29:20.698Z,4.03
2023-02-11T17:31:47.921Z,5.38
2023-02-11T17:34:15.039Z,8.10
2023-02-11T17:36:41.927Z,5.82
2023-02-11T17:39:08.921Z,5.55
2023-02-11T17:41:37.996Z,5.47
2023-02-11T17:44:06.026Z,3.17
2023-02-11T17:46:34.892Z,5.80
2023-02-11T17:49:02.755Z,5.70
2023-02-11T17:51:35.740Z,6.63
2023-02-11T17:54:07.533Z,6.18
2023-02-11T17:56:36.480Z,4.82
2023-02-11T17:59:05.213Z,5.28
2023-02-11T18:01:34.331Z,5.75
2023-02-11T18:04:01.794Z,5.50
2023-02-11T18:06:29.263Z,8.00
2023-02-11T18:08:59.742Z,5.75
2023-02-11T18:11:28.090Z,5.97
2023-02-11T18:13:55.493Z,7.00
2023-02-11T18:16:25.174Z,5.53
2023-02-11T18:18:52.136Z,4.15
2023-02-11T18:21:21.383Z,4.95
2023-02-11T18:23:49.198Z,7.93
2023-02-11T18:26:18.167Z,6.07
2023-02-11T18:28:46.054Z,8.05
2023-02-11T18:31:14.162Z,9.40
2023-02-11T18:33:42.047Z,8.82
2023-02-11T18:36:14.339Z,4.93
2023-02-11T18:38:44.260Z,6.38
2023-02-11T18:41:12.097Z,7.72
2023-02-11T18:43:43.112Z,6.50
2023-02-11T18:46:12.770Z,6.55
2023-02-11T18:48:40.527Z,6.07
2023-02-11T18:51:16.245Z,4.82
2023-02-11T18:53:43.469Z,10.20
2023-02-11T18:56:14.099Z,6.22
2023-02-11T18:58:41.125Z,12.85
2023-02-11T19:01:14.089Z,6.05
2023-02-11T19:03:40.984Z,9.63
2023-02-11T19:06:13.104Z,5.70
2023-02-11T19:08:39.944Z,10.77
2023-02-11T19:11:06.885Z,8.73
2023-02-11T19:13:33.779Z,7.22
2023-02-11T19:16:00.629Z,8.38
2023-02-11T19:18:27.540Z,11.02
2023-02-11T19:20:54.413Z,7.93
2023-02-11T19:23:21.494Z,8.10
2023-02-11T19:25:48.902Z,6.93
2023-02-11T19:28:16.026Z,6.70
2023-02-11T19:30:43.171Z,8.82
2023-02-11T19:33:10.679Z,10.27
2023-02-11T19:35:37.572Z,7.18
2023-02-11T19:38:05.530Z,7.00
2023-02-11T19:40:32.846Z,8.38
2023-02-11T19:42:59.964Z,9.88
2023-02-11T19:45:27.122Z,6.10
2023-02-11T19:47:57.661Z,8.93
2023-02-11T19:50:25.142Z,10.95
2023-02-11T19:52:52.037Z,8.70
2023-02-11T19:55:18.993Z,10.18
2023-02-11T19:57:46.525Z,9.35
2023-02-11T20:00:13.962Z,7.28
2023-02-11T20:02:41.198Z,8.63
2023-02-11T20:05:08.410Z,8.50
2023-02-11T20:07:35.574Z,6.65
2023-02-11T20:10:02.776Z,9.00
2023-02-11T20:12:29.739Z,8.80
2023-02-11T20:14:56.665Z,9.27
2023-02-11T20:17:23.586Z,7.25
2023-02-11T20:19:50.583Z,6.35
2023-02-11T20:22:17.608Z,4.90
2023-02-11T20:24:44.671Z,10.10
2023-02-11T20:27:12.322Z,6.72
2023-02-11T20:29:39.935Z,8.20
2023-02-11T20:32:07.709Z,6.38
2023-02-11T20:34:34.747Z,11.43
2023-02-11T20:37:02.696Z,10.93
2023-02-11T20:39:29.928Z,9.02
2023-02-11T20:41:57.630Z,6.55
2023-02-11T20:44:24.920Z,2.20
2023-02-11T20:46:54.156Z,7.35
2023-02-11T20:49:23.851Z,9.07
2023-02-11T20:51:52.564Z,5.32
2023-02-11T20:54:21.047Z,6.30
2023-02-11T20:56:51.284Z,8.02
2023-02-11T20:59:19.363Z,3.97
2023-02-11T21:01:48.704Z,8.30
2023-02-11T21:04:21.475Z,5.18
2023-02-11T21:06:52.240Z,12.65
2023-02-11T21:09:22.999Z,4.00
2023-02-11T21:11:54.294Z,5.45
2023-02-11T21:14:24.075Z,6.50
2023-02-11T21:16:51.445Z,7.93
2023-02-11T21:19:19.073Z,5.35
2023-02-11T21:21:46.070Z,5.18
2023-02-11T21:24:13.006Z,5.80
2023-02-11T21:26:39.987Z,6.03
2023-02-11T21:29:08.086Z,4.30
2023-02-11T21:31:36.609Z,5.70
2023-02-11T21:34:04.547Z,6.05
2023-02-11T21:36:31.665Z,12.00
2023-02-11T21:38:58.817Z,4.45
2023-02-11T21:41:27.429Z,6.50
2023-02-11T21:43:54.586Z,6.13
2023-02-11T21:46:22.327Z,10.32
2023-02-11T21:48:49.853Z,6.18
2023-02-11T21:51:19.659Z,5.70
2023-02-11T21:53:47.050Z,5.55
2023-02-11T21:56:16.618Z,6.03
2023-02-11T21:58:44.371Z,8.68
2023-02-11T22:01:19.384Z,4.60
2023-02-11T22:03:47.547Z,6.15
2023-02-11T22:06:18.495Z,4.22
2023-02-11T22:11:12.996Z,1.65
2023-02-11T22:13:40.784Z,5.97
2023-02-11T22:16:14.041Z,4.45
2023-02-11T22:18:41.836Z,6.20
2023-02-11T22:21:11.478Z,7.38
2023-02-11T22:23:39.420Z,9.38
2023-02-11T22:26:09.507Z,6.15
2023-02-11T22:28:38.972Z,6.83
2023-02-11T22:31:06.506Z,4.53
2023-02-11T22:33:33.934Z,4.25
2023-02-11T22:36:02.188Z,9.68
2023-02-11T22:38:31.292Z,6.70
2023-02-11T22:40:59.404Z,5.30
2023-02-11T22:43:27.796Z,5.32
2023-02-11T22:45:56.630Z,4.70
2023-02-11T22:48:23.822Z,8.45
2023-02-11T22:50:50.747Z,6.18
2023-02-11T22:53:17.647Z,2.65
2023-02-11T22:55:44.573Z,4.43
2023-02-11T22:58:11.872Z,3.92
2023-02-11T23:00:41.195Z,6.63
2023-02-11T23:03:09.161Z,4.10
2023-02-11T23:05:41.357Z,2.13
2023-02-11T23:08:10.093Z,2.85
2023-02-11T23:10:39.147Z,6.40
2023-02-11T23:13:07.152Z,8.02
2023-02-11T23:15:34.165Z,7.00
2023-02-11T23:18:01.111Z,5.45
2023-02-11T23:20:28.056Z,5.45
2023-02-11T23:22:55.111Z,9.00
2023-02-11T23:25:21.991Z,4.43
2023-02-11T23:27:49.071Z,6.68
2023-02-11T23:30:16.094Z,7.93
2023-02-11T23:32:42.966Z,7.18
2023-02-11T23:35:09.936Z,4.68
2023-02-11T23:37:36.911Z,7.22
2023-02-11T23:40:04.242Z,4.70
2023-02-11T23:42:31.248Z,8.52
2023-02-11T23:44:58.090Z,6.85
2023-02-11T23:47:25.026Z,7.15
2023-02-11T23:49:51.909Z,5.15
2023-02-11T23:52:19.312Z,8.88
2023-02-11T23:54:48.359Z,7.03
2023-02-11T23:57:15.922Z,6.85
2023-02-11T23:59:43.265Z,4.80
